Time;durP1;ratioP1;P1;durP2;ratioP2;P2;SDS_P1;SDS_P2;PMS_P1;PMS_P2;Temp;Humidity;BMP_temperature;BMP_pressure;BME280_temperature;BME280_humidity;BME280_pressure;Samples;Min_cycle;Max_cycle;Signal;HPM_P1;HPM_P2
2023/08/30 00:01:58;;;;;;;3.35;2.17;;;20.30;82.80;;;;;;5071795;28;20135;-31
2023/08/30 00:04:25;;;;;;;2.20;1.90;;;;;;;;;;5071521;28;20102;-32
2023/08/30 00:06:51;;;;;;;2.17;1.95;;;20.00;77.30;;;;;;5071787;28;20123;-31
2023/08/30 00:09:18;;;;;;;2.22;1.95;;;21.70;85.20;;;;;;5071705;28;20144;-31
2023/08/30 00:11:45;;;;;;;2.10;1.90;;;20.30;84.90;;;;;;5071463;28;20123;-30
2023/08/30 00:14:12;;;;;;;2.15;1.95;;;20.80;70.50;;;;;;5070757;28;20125;-31
2023/08/30 00:16:40;;;;;;;2.80;2.00;;;20.80;84.20;;;;;;5071760;28;20124;-32
2023/08/30 00:19:07;;;;;;;2.63;2.10;;;20.90;84.30;;;;;;5071491;28;20048;-31
2023/08/30 00:21:34;;;;;;;2.67;2.08;;;;;;;;;;5074100;28;20083;-30
2023/08/30 00:24:01;;;;;;;4.03;2.20;;;20.00;83.80;;;;;;5075466;28;20084;-31
2023/08/30 00:26:28;;;;;;;2.40;2.10;;;;;;;;;;5075462;28;20409;-34
2023/08/30 00:28:55;;;;;;;2.65;2.22;;;20.60;84.10;;;;;;5065761;28;20127;-31
2023/08/30 00:31:22;;;;;;;2.22;2.03;;;;;;;;;;5055767;28;20162;-30
2023/08/30 00:33:50;;;;;;;2.60;1.98;;;20.40;83.20;;;;;;5055289;28;20131;-31
2023/08/30 00:36:18;;;;;;;2.40;2.10;;;20.70;85.30;;;;;;5058787;28;20132;-31
2023/08/30 00:38:45;;;;;;;2.40;2.00;;;20.10;81.90;;;;;;5075243;28;20090;-31
2023/08/30 00:41:11;;;;;;;2.60;2.13;;;20.30;84.20;;;;;;5074640;28;20040;-31
2023/08/30 00:43:38;;;;;;;2.55;2.08;;;;;;;;;;5074923;28;20736;-31
2023/08/30 00:46:05;;;;;;;2.40;2.10;;;;;;;;;;5075128;28;20480;-31
2023/08/30 00:48:32;;;;;;;3.05;2.40;;;19.60;83.90;;;;;;5075110;28;20626;-32
2023/08/30 00:51:00;;;;;;;2.53;2.17;;;21.40;74.00;;;;;;5075077;28;20131;-31
2023/08/30 00:53:27;;;;;;;2.30;2.00;;;20.50;72.30;;;;;;5075024;28;20080;-31
2023/08/30 00:55:53;;;;;;;3.03;2.20;;;20.40;84.00;;;;;;5074191;28;20132;-31
2023/08/30 00:58:20;;;;;;;2.92;2.22;;;20.80;84.70;;;;;;5075111;28;20509;-31
2023/08/30 01:00:47;;;;;;;2.45;2.25;;;20.90;74.30;;;;;;5074926;28;20083;-33
2023/08/30 01:03:14;;;;;;;2.55;2.35;;;20.70;84.50;;;;;;5074713;28;20131;-31
2023/08/30 01:05:41;;;;;;;2.53;2.17;;;;;;;;;;5074726;28;20131;-36
2023/08/30 01:08:11;;;;;;;2.53;2.20;;;20.70;84.20;;;;;;5075085;28;20128;-30
2023/08/30 01:10:45;;;;;;;2.72;2.45;;;20.50;67.10;;;;;;5074103;28;20167;-32
2023/08/30 01:13:13;;;;;;;3.55;2.42;;;20.50;67.20;;;;;;5074641;28;20128;-32
2023/08/30 01:15:40;;;;;;;2.90;2.60;;;20.60;84.60;;;;;;5073017;28;20508;-31
2023/08/30 01:18:07;;;;;;;5.20;2.45;;;20.40;84.70;;;;;;5074758;28;20123;-30
2023/08/30 01:20:35;;;;;;;3.25;2.50;;;20.50;67.10;;;;;;5074496;28;20131;-33
2023/08/30 01:23:05;;;;;;;3.35;2.47;;;20.50;67.10;;;;;;5069340;28;20136;-33
2023/08/30 01:25:43;;;;;;;2.63;2.30;;;20.50;67.10;;;;;;5064479;28;20099;-32
2023/08/30 01:28:11;;;;;;;2.97;2.67;;;20.70;84.60;;;;;;5054646;28;20080;-31
2023/08/30 01:30:38;;;;;;;3.22;2.65;;;20.40;84.10;;;;;;5054439;28;20136;-30
2023/08/30 01:33:05;;;;;;;2.70;2.50;;;20.90;84.50;;;;;;5052636;28;20148;-31
2023/08/30 01:35:35;;;;;;;3.33;2.55;;;;;;;;;;5054597;28;20127;-34
2023/08/30 01:38:02;;;;;;;2.75;2.53;;;20.40;67.00;;;;;;5071714;28;20049;-32
2023/08/30 01:40:29;;;;;;;2.75;2.50;;;20.90;84.70;;;;;;5074476;28;20459;-34
2023/08/30 01:42:57;;;;;;;2.83;2.53;;;;;;;;;;5073974;28;20089;-32
2023/08/30 01:45:25;;;;;;;3.10;2.50;;;20.50;84.90;;;;;;5074365;28;20132;-30
2023/08/30 01:47:52;;;;;;;4.20;2.92;;;19.50;83.70;;;;;;5074035;28;20075;-32
2023/08/30 01:50:19;;;;;;;2.53;2.33;;;20.30;79.00;;;;;;5073517;28;20044;-31
2023/08/30 01:52:46;;;;;;;2.95;2.50;;;20.60;84.90;;;;;;5073748;28;20132;-30
2023/08/30 01:55:13;;;;;;;2.70;2.50;;;;;;;;;;5073857;28;20053;-32
2023/08/30 01:57:39;;;;;;;3.35;2.97;;;21.10;84.40;;;;;;5074087;28;20136;-31
2023/08/30 02:00:07;;;;;;;2.95;2.65;;;20.40;84.10;;;;;;5073801;28;20573;-31
2023/08/30 02:02:36;;;;;;;3.00;2.60;;;20.80;70.30;;;;;;5073547;28;20128;-31
2023/08/30 02:05:04;;;;;;;3.63;2.83;;;20.10;74.30;;;;;;5073130;28;20131;-30
2023/08/30 02:07:34;;;;;;;3.10;2.80;;;19.40;83.50;;;;;;5053883;28;20132;-30
2023/08/30 02:10:02;;;;;;;3.08;2.70;;;20.40;67.00;;;;;;5053824;28;20128;-33
2023/08/30 02:12:33;;;;;;;3.70;2.55;;;20.30;67.00;;;;;;5053239;28;20135;-33
2023/08/30 02:14:59;;;;;;;3.22;2.85;;;20.20;74.70;;;;;;5053919;28;20049;-32
2023/08/30 02:17:26;;;;;;;3.00;2.70;;;20.30;84.30;;;;;;5053679;28;20148;-31
2023/08/30 02:19:54;;;;;;;4.10;2.72;;;19.80;84.30;;;;;;5053460;28;20132;-31
2023/08/30 02:22:21;;;;;;;4.80;2.85;;;20.60;75.20;;;;;;5054231;28;20128;-31
2023/08/30 02:24:48;;;;;;;2.97;2.45;;;;;;;;;;5053707;28;20136;-34
2023/08/30 02:27:15;;;;;;;3.03;2.65;;;20.30;83.50;;;;;;5053360;28;20131;-32
2023/08/30 02:29:41;;;;;;;3.30;2.85;;;21.10;84.60;;;;;;5053756;28;20128;-33
2023/08/30 02:32:08;;;;;;;3.10;2.80;;;20.50;74.70;;;;;;5053303;28;20132;-31
2023/08/30 02:34:35;;;;;;;3.47;2.50;;;20.00;83.80;;;;;;5070231;28;20140;-30
2023/08/30 02:37:03;;;;;;;4.32;2.72;;;21.00;69.40;;;;;;5059538;28;20048;-32
2023/08/30 02:39:30;;;;;;;3.13;2.53;;;19.40;71.50;;;;;;5073077;28;20127;-32
2023/08/30 02:41:57;;;;;;;2.92;2.63;;;20.20;84.50;;;;;;5073226;28;20573;-31
2023/08/30 02:44:24;;;;;;;3.28;2.60;;;;;;;;;;5072375;28;20084;-31
2023/08/30 02:46:51;;;;;;;2.90;2.60;;;;;;;;;;5070440;28;20132;-32
2023/08/30 02:49:18;;;;;;;3.28;2.70;;;;;;;;;;5072303;28;20131;-31
2023/08/30 02:51:45;;;;;;;3.15;2.70;;;20.20;84.10;;;;;;5071888;28;20131;-31
2023/08/30 02:54:13;;;;;;;3.10;2.47;;;20.90;84.50;;;;;;5062436;28;20136;-31
2023/08/30 02:56:41;;;;;;;3.45;2.70;;;20.70;85.30;;;;;;5052948;28;20045;-31
2023/08/30 02:59:07;;;;;;;3.35;3.00;;;20.00;76.70;;;;;;5071998;28;20464;-31
2023/08/30 03:01:34;;;;;;;2.95;2.70;;;20.30;84.80;;;;;;5072088;28;20127;-32
2023/08/30 03:04:01;;;;;;;3.40;2.80;;;;;;;;;;5071572;28;20484;-32
2023/08/30 03:06:28;;;;;;;3.38;3.00;;;20.30;84.80;;;;;;5070443;28;20083;-30
2023/08/30 03:08:54;;;;;;;3.20;2.90;;;20.50;84.20;;;;;;5071097;28;20127;-31
2023/08/30 03:11:22;;;;;;;3.53;3.10;;;20.20;66.70;;;;;;5051889;28;20136;-34
2023/08/30 03:13:50;;;;;;;3.90;3.15;;;20.10;76.60;;;;;;5051428;28;20132;-30
2023/08/30 03:16:17;;;;;;;3.42;2.95;;;;;;;;;;5051589;28;20530;-33
2023/08/30 03:18:44;;;;;;;3.10;2.75;;;19.80;66.60;;;;;;5063341;28;20553;-31
2023/08/30 03:21:11;;;;;;;2.83;2.60;;;;;;;;;;5071566;28;20131;-31
2023/08/30 03:23:39;;;;;;;3.17;2.80;;;20.50;84.00;;;;;;5071157;28;20501;-30
2023/08/30 03:26:09;;;;;;;3.80;3.03;;;20.20;66.60;;;;;;5070030;28;20048;-32
2023/08/30 03:28:37;;;;;;;6.10;3.00;;;20.00;71.90;;;;;;5052646;28;20055;-37
2023/08/30 03:31:12;;;;;;;2.92;2.63;;;20.10;74.70;;;;;;5051111;28;20051;-36
2023/08/30 03:33:38;;;;;;;;;;;20.20;66.70;;;;;;5051923;28;20060;-37
2023/08/30 03:36:05;;;;;;;3.10;2.75;;;20.00;69.60;;;;;;5053563;28;20549;-36
2023/08/30 03:38:32;;;;;;;4.78;2.70;;;20.70;81.10;;;;;;5071445;28;20044;-36
2023/08/30 03:40:59;;;;;;;3.80;2.75;;;19.90;84.00;;;;;;5070124;28;20143;-36
2023/08/30 03:43:25;;;;;;;3.38;3.03;;;20.40;84.20;;;;;;5070961;28;20155;-38
2023/08/30 03:45:53;;;;;;;4.13;2.75;;;20.30;74.40;;;;;;5071133;28;20131;-38
2023/08/30 03:48:20;;;;;;;3.33;2.70;;;20.00;72.30;;;;;;5070722;28;20139;-33
2023/08/30 03:50:47;;;;;;;3.10;2.58;;;19.40;83.70;;;;;;5070998;28;20131;-39
2023/08/30 03:53:13;;;;;;;3.70;2.65;;;19.70;84.30;;;;;;5071521;28;20135;-36
2023/08/30 03:55:41;;;;;;;3.63;2.90;;;;;;;;;;5070438;28;20147;-35
2023/08/30 03:58:07;;;;;;;3.67;3.05;;;19.80;83.70;;;;;;5071817;28;20580;-37
2023/08/30 04:00:37;;;;;;;2.80;2.60;;;19.20;83.60;;;;;;5071611;28;20124;-36
2023/08/30 04:03:05;;;;;;;3.28;2.65;;;19.80;83.50;;;;;;5071444;28;20044;-38
2023/08/30 04:05:34;;;;;;;3.05;2.50;;;21.20;79.60;;;;;;5071885;28;20060;-37
2023/08/30 04:08:01;;;;;;;3.78;2.40;;;;;;;;;;5072062;28;20071;-33
2023/08/30 04:10:28;;;;;;;2.83;2.42;;;20.00;77.50;;;;;;5071698;28;20127;-35
2023/08/30 04:12:55;;;;;;;3.45;2.63;;;;;;;;;;5069807;28;20127;-40
2023/08/30 04:15:21;;;;;;;3.05;2.75;;;20.10;83.90;;;;;;5071473;28;20131;-37
2023/08/30 04:17:48;;;;;;;3.20;2.72;;;20.30;84.40;;;;;;5071754;28;20131;-39
2023/08/30 04:20:16;;;;;;;3.00;2.60;;;20.10;66.60;;;;;;5071654;28;20156;-34
2023/08/30 04:22:43;;;;;;;2.90;2.45;;;;;;;;;;5071353;28;20135;-37
2023/08/30 04:25:10;;;;;;;3.13;2.50;;;19.70;83.60;;;;;;5071543;28;20135;-40
2023/08/30 04:27:37;;;;;;;3.10;2.60;;;19.70;78.50;;;;;;5070609;28;20056;-35
2023/08/30 04:30:04;;;;;;;3.15;2.85;;;19.00;76.00;;;;;;5054209;28;20131;-37
2023/08/30 04:32:31;;;;;;;3.33;3.03;;;20.30;84.30;;;;;;5051236;28;20128;-36
2023/08/30 04:34:58;;;;;;;3.47;2.85;;;;;;;;;;5051736;28;20147;-35
2023/08/30 04:37:26;;;;;;;3.00;2.70;;;20.10;75.10;;;;;;5063909;28;20124;-34
2023/08/30 04:39:52;;;;;;;2.92;2.40;;;19.60;84.40;;;;;;5071291;28;20139;-39
2023/08/30 04:42:19;;;;;;;3.05;2.45;;;20.20;84.20;;;;;;5071131;28;20125;-37
2023/08/30 04:44:46;;;;;;;2.80;2.50;;;19.80;69.90;;;;;;5062400;28;20137;-35
2023/08/30 04:47:13;;;;;;;3.40;2.50;;;19.70;83.60;;;;;;5060485;28;20123;-34
2023/08/30 04:49:39;;;;;;;3.08;2.63;;;20.10;84.30;;;;;;5071452;28;20135;-35
2023/08/30 04:52:06;;;;;;;2.63;2.38;;;20.00;66.60;;;;;;5071032;28;20131;-33
2023/08/30 04:54:35;;;;;;;2.95;2.50;;;20.00;66.60;;;;;;5071062;28;20128;-34
2023/08/30 04:57:02;;;;;;;3.03;2.47;;;;;;;;;;5071265;28;20131;-34
2023/08/30 04:59:29;;;;;;;2.55;2.33;;;20.20;84.20;;;;;;5071357;28;20059;-39
2023/08/30 05:01:56;;;;;;;2.60;2.40;;;19.80;83.80;;;;;;5058675;28;20125;-36
2023/08/30 05:04:23;;;;;;;3.08;2.50;;;20.90;77.30;;;;;;5068052;28;20044;-38
2023/08/30 05:06:50;;;;;;;3.00;2.60;;;;;;;;;;5056298;28;20127;-34
2023/08/30 05:09:17;;;;;;;2.75;2.53;;;;;;;;;;5055006;28;20132;-34
2023/08/30 05:11:45;;;;;;;3.00;2.70;;;19.90;84.50;;;;;;5054739;28;20053;-38
2023/08/30 05:14:12;;;;;;;3.38;2.50;;;19.00;83.50;;;;;;5054847;28;20137;-34
2023/08/30 05:16:40;;;;;;;3.38;2.75;;;20.10;79.40;;;;;;5055733;28;20098;-35
2023/08/30 05:19:06;;;;;;;2.92;2.60;;;19.60;84.00;;;;;;5054683;28;20061;-30
2023/08/30 05:21:33;;;;;;;3.30;2.50;;;;;;;;;;5054794;28;20139;-32
2023/08/30 05:24:00;;;;;;;4.22;2.70;;;;;;;;;;5054222;28;20522;-32
2023/08/30 05:26:27;;;;;;;3.05;2.63;;;;;;;;;;5054363;28;20585;-31
2023/08/30 05:28:55;;;;;;;3.60;2.70;;;19.90;66.50;;;;;;5054852;28;20049;-29
2023/08/30 05:31:22;;;;;;;2.95;2.53;;;20.40;84.00;;;;;;5054287;28;20131;-30
2023/08/30 05:33:49;;;;;;;3.15;2.40;;;19.70;83.70;;;;;;5055347;28;20127;-31
2023/08/30 05:36:15;;;;;;;3.70;2.65;;;20.40;74.60;;;;;;5057531;28;20079;-31
2023/08/30 05:38:43;;;;;;;2.88;2.58;;;19.60;83.70;;;;;;5074214;28;20076;-31
2023/08/30 05:41:10;;;;;;;3.60;2.70;;;;;;;;;;5074186;28;20044;-34
2023/08/30 05:43:37;;;;;;;4.13;2.63;;;20.10;84.10;;;;;;5074247;28;20124;-33
2023/08/30 05:46:05;;;;;;;3.22;2.63;;;19.90;66.50;;;;;;5074120;28;20052;-34
2023/08/30 05:48:32;;;;;;;3.20;2.70;;;;;;;;;;5074076;28;20132;-34
2023/08/30 05:50:59;;;;;;;3.22;2.50;;;;;;;;;;5073317;28;20131;-38
2023/08/30 05:53:26;;;;;;;2.90;2.60;;;;;;;;;;5073490;28;20131;-37
2023/08/30 05:55:53;;;;;;;4.80;2.53;;;19.70;83.80;;;;;;5074092;28;20135;-38
2023/08/30 05:58:19;;;;;;;3.08;2.50;;;19.30;83.60;;;;;;5074273;28;20127;-37
2023/08/30 06:00:46;;;;;;;3.00;2.47;;;;;;;;;;5073899;28;20131;-34
2023/08/30 06:03:14;;;;;;;3.55;2.55;;;19.80;83.10;;;;;;5073599;28;20131;-38
2023/08/30 06:05:42;;;;;;;3.88;2.70;;;20.30;84.50;;;;;;5071857;28;20119;-35
2023/08/30 06:08:09;;;;;;;3.40;2.67;;;20.20;84.00;;;;;;5074073;28;20075;-35
2023/08/30 06:10:36;;;;;;;3.85;2.80;;;19.50;83.80;;;;;;5071419;28;20132;-36
2023/08/30 06:13:03;;;;;;;2.85;2.40;;;19.90;84.60;;;;;;5063446;28;20550;-36
2023/08/30 06:15:30;;;;;;;4.35;2.60;;;19.50;83.70;;;;;;5062382;28;20466;-36
2023/08/30 06:17:58;;;;;;;3.53;2.90;;;19.40;71.10;;;;;;5073121;28;20456;-35
2023/08/30 06:20:26;;;;;;;3.05;2.63;;;19.80;67.70;;;;;;5069938;28;20128;-33
2023/08/30 06:22:53;;;;;;;3.80;2.90;;;18.80;69.80;;;;;;5058676;28;20069;-38
2023/08/30 06:25:20;;;;;;;2.80;2.40;;;;;;;;;;5063416;28;20123;-37
2023/08/30 06:27:56;;;;;;;2.90;2.42;;;19.80;66.50;;;;;;5058657;28;20128;-39
2023/08/30 06:30:23;;;;;;;3.90;2.83;;;19.40;84.30;;;;;;5073446;28;20135;-38
2023/08/30 06:32:50;;;;;;;3.75;2.53;;;19.80;83.80;;;;;;5063805;28;20072;-38
2023/08/30 06:35:16;;;;;;;3.60;2.67;;;19.30;84.50;;;;;;5064538;28;20044;-39
2023/08/30 06:37:44;;;;;;;4.93;3.00;;;19.80;66.50;;;;;;5066993;28;20127;-37
2023/08/30 06:40:12;;;;;;;3.80;3.05;;;19.80;66.50;;;;;;5073134;28;20127;-34
2023/08/30 06:42:39;;;;;;;3.10;2.55;;;19.70;83.90;;;;;;5072034;28;20135;-39
2023/08/30 06:45:06;;;;;;;3.72;3.10;;;19.80;66.50;;;;;;5073301;28;20059;-32
2023/08/30 06:47:33;;;;;;;3.40;2.70;;;19.80;83.90;;;;;;5071345;28;20135;-39
2023/08/30 06:50:00;;;;;;;3.75;2.50;;;19.90;68.40;;;;;;5062357;28;20132;-36
2023/08/30 06:52:27;;;;;;;3.88;2.80;;;19.70;84.10;;;;;;5060475;28;20131;-39
2023/08/30 06:54:55;;;;;;;3.67;2.70;;;19.70;76.30;;;;;;5061714;28;20143;-38
2023/08/30 06:57:22;;;;;;;3.75;2.88;;;;;;;;;;5060563;28;20066;-37
2023/08/30 06:59:49;;;;;;;3.83;2.90;;;19.70;83.90;;;;;;5062362;28;20129;-40
2023/08/30 07:02:16;;;;;;;3.13;2.70;;;;;;;;;;5058985;28;20474;-33
2023/08/30 07:04:43;;;;;;;4.00;2.95;;;;;;;;;;5063514;28;20127;-38
2023/08/30 07:07:10;;;;;;;3.92;2.78;;;;;;;;;;5061537;28;20092;-32
2023/08/30 07:09:37;;;;;;;3.90;2.80;;;19.50;84.30;;;;;;5061144;28;20132;-36
2023/08/30 07:12:06;;;;;;;4.22;2.90;;;19.80;66.60;;;;;;5063422;28;20514;-35
2023/08/30 07:14:33;;;;;;;3.30;2.60;;;20.70;83.20;;;;;;5060083;28;20123;-32
2023/08/30 07:17:00;;;;;;;4.30;2.80;;;;;;;;;;5058356;28;20131;-32
2023/08/30 07:19:27;;;;;;;4.03;2.90;;;20.70;71.40;;;;;;5062814;28;20497;-30
2023/08/30 07:21:53;;;;;;;4.05;3.03;;;18.80;83.50;;;;;;5060404;28;20127;-32
2023/08/30 07:24:22;;;;;;;4.20;2.58;;;;;;;;;;5061265;28;20131;-31
2023/08/30 07:26:49;;;;;;;4.05;2.85;;;;;;;;;;5060070;28;20044;-34
2023/08/30 07:29:17;;;;;;;3.20;2.60;;;19.60;82.20;;;;;;5066789;28;20098;-31
2023/08/30 07:31:44;;;;;;;4.20;2.90;;;20.00;85.10;;;;;;5072513;28;20131;-31
2023/08/30 07:34:11;;;;;;;3.45;2.60;;;20.90;84.60;;;;;;5071490;28;20048;-30
2023/08/30 07:36:38;;;;;;;3.55;2.40;;;20.80;84.40;;;;;;5071208;28;20048;-31
2023/08/30 07:39:05;;;;;;;2.65;2.30;;;;;;;;;;5072184;28;20486;-30
2023/08/30 07:41:32;;;;;;;4.88;2.60;;;21.30;84.50;;;;;;5070334;28;20151;-32
2023/08/30 07:43:59;;;;;;;3.20;2.40;;;;;;;;;;5053171;28;20132;-34
2023/08/30 07:46:28;;;;;;;4.20;2.50;;;19.80;83.80;;;;;;5071816;28;20056;-31
2023/08/30 07:48:55;;;;;;;3.28;2.42;;;20.10;83.90;;;;;;5069174;28;20060;-31
2023/08/30 07:51:22;;;;;;;3.50;2.30;;;;;;;;;;5056001;28;20056;-34
2023/08/30 07:53:48;;;;;;;3.88;2.55;;;20.80;84.60;;;;;;5062241;28;20127;-30
2023/08/30 07:56:15;;;;;;;4.78;3.00;;;20.70;79.40;;;;;;5072073;28;20076;-31
2023/08/30 07:58:42;;;;;;;3.53;2.25;;;20.60;69.80;;;;;;5071159;28;20135;-31
2023/08/30 08:01:09;;;;;;;2.80;2.10;;;21.90;84.30;;;;;;5072086;28;20052;-31
2023/08/30 08:03:37;;;;;;;3.40;2.38;;;20.80;66.10;;;;;;5063521;28;20498;-34
2023/08/30 08:06:04;;;;;;;4.72;2.40;;;20.70;83.30;;;;;;5051960;28;20128;-31
2023/08/30 08:08:30;;;;;;;4.40;2.25;;;21.30;83.90;;;;;;5059054;28;20391;-30
2023/08/30 08:10:57;;;;;;;3.33;2.28;;;21.20;83.90;;;;;;5071695;28;20131;-30
2023/08/30 08:13:24;;;;;;;3.30;2.38;;;;;;;;;;5055598;28;20079;-35
2023/08/30 08:15:51;;;;;;;3.75;2.20;;;20.70;83.00;;;;;;5051949;28;20123;-30
2023/08/30 08:18:18;;;;;;;2.55;1.83;;;20.90;83.20;;;;;;5066766;28;20128;-30
2023/08/30 08:20:46;;;;;;;4.85;2.25;;;20.10;66.10;;;;;;5065695;28;20120;-33
2023/08/30 08:23:13;;;;;;;2.83;2.25;;;;;;;;;;5059325;28;20120;-35
2023/08/30 08:25:39;;;;;;;3.78;2.22;;;21.00;82.30;;;;;;5058856;28;20139;-30
2023/08/30 08:28:07;;;;;;;5.03;1.95;;;;;;;;;;5060074;28;20638;-30
2023/08/30 08:30:33;;;;;;;2.72;2.10;;;21.30;82.70;;;;;;5061659;28;20417;-31
2023/08/30 08:33:00;;;;;;;2.35;2.00;;;21.30;82.00;;;;;;5061576;28;20131;-30
2023/08/30 08:35:27;;;;;;;2.90;2.15;;;21.80;71.10;;;;;;5062056;28;20052;-32
2023/08/30 08:37:55;;;;;;;3.63;2.25;;;21.20;82.10;;;;;;5059121;28;20128;-31
2023/08/30 08:40:22;;;;;;;2.90;2.28;;;;;;;;;;5062145;28;20136;-32
2023/08/30 08:42:50;;;;;;;2.67;2.00;;;22.00;83.10;;;;;;5063101;28;20072;-30
2023/08/30 08:45:17;;;;;;;3.75;1.88;;;;;;;;;;5065723;28;20052;-35
2023/08/30 08:47:44;;;;;;;6.20;2.00;;;21.60;82.00;;;;;;5065904;28;20072;-30
2023/08/30 08:50:11;;;;;;;2.97;2.10;;;22.10;82.50;;;;;;5065165;28;20462;-31
2023/08/30 08:52:38;;;;;;;3.85;2.22;;;;;;;;;;5064619;28;20124;-33
2023/08/30 08:55:07;;;;;;;4.05;1.98;;;21.90;65.10;;;;;;5067083;28;20129;-29
2023/08/30 08:57:34;;;;;;;2.50;2.10;;;;;;;;;;5064056;28;20558;-32
2023/08/30 09:00:01;;;;;;;4.03;2.17;;;21.60;82.20;;;;;;5063985;28;20129;-30
2023/08/30 09:02:28;;;;;;;2.55;2.00;;;;;;;;;;5061632;28;20045;-35
2023/08/30 09:04:57;;;;;;;3.80;2.10;;;22.30;82.90;;;;;;5062466;28;20462;-31
2023/08/30 09:07:24;;;;;;;2.72;2.17;;;;;;;;;;5064986;28;20120;-30
2023/08/30 09:09:52;;;;;;;5.25;2.22;;;21.60;81.60;;;;;;5065148;28;20162;-35
2023/08/30 09:12:21;;;;;;;3.55;2.45;;;21.70;64.80;;;;;;5054653;28;20045;-34
2023/08/30 09:14:55;;;;;;;2.90;2.10;;;21.00;81.60;;;;;;5054987;28;20056;-35
2023/08/30 09:17:21;;;;;;;5.13;2.33;;;21.50;81.60;;;;;;5055160;28;20053;-38
2023/08/30 09:19:48;;;;;;;2.67;2.08;;;;;;;;;;5054602;28;20128;-34
2023/08/30 09:22:15;;;;;;;3.10;2.22;;;21.40;82.00;;;;;;5054855;28;20102;-35
2023/08/30 09:24:42;;;;;;;4.10;2.20;;;21.70;82.00;;;;;;5063678;28;20624;-36
2023/08/30 09:27:09;;;;;;;7.97;2.30;;;21.90;81.50;;;;;;5074446;28;20576;-33
2023/08/30 09:29:37;;;;;;;4.18;2.28;;;21.50;81.50;;;;;;5069614;28;20136;-36
2023/08/30 09:32:04;;;;;;;3.42;2.30;;;;;;;;;;5054985;28;20206;-35
2023/08/30 09:34:31;;;;;;;4.88;2.97;;;;;;;;;;5054373;28;20045;-35
2023/08/30 09:37:00;;;;;;;5.22;3.10;;;20.80;80.80;;;;;;5063530;28;20128;-38
2023/08/30 09:39:27;;;;;;;4.50;3.10;;;21.40;81.90;;;;;;5074662;28;20056;-36
2023/08/30 09:41:55;;;;;;;4.18;2.80;;;20.80;80.80;;;;;;5074086;28;20131;-34
2023/08/30 09:44:22;;;;;;;4.40;2.80;;;21.70;64.80;;;;;;5074160;28;20128;-36
2023/08/30 09:46:52;;;;;;;4.97;3.13;;;21.70;82.10;;;;;;5074471;28;20132;-36
2023/08/30 09:49:20;;;;;;;6.38;2.85;;;21.90;80.70;;;;;;5074234;28;20167;-37
2023/08/30 09:51:47;;;;;;;5.70;2.90;;;22.00;81.60;;;;;;5074158;28;20401;-36
2023/08/30 09:54:15;;;;;;;4.30;2.88;;;21.10;76.20;;;;;;5072908;28;20128;-35
2023/08/30 09:56:42;;;;;;;4.40;2.92;;;21.00;81.70;;;;;;5070978;28;20056;-36
2023/08/30 09:59:10;;;;;;;6.13;3.13;;;;;;;;;;5062518;28;20124;-35
2023/08/30 10:01:38;;;;;;;6.93;3.10;;;;;;;;;;5064345;28;20052;-34
2023/08/30 10:04:06;;;;;;;4.80;3.17;;;21.60;65.00;;;;;;5056048;28;20128;-32
2023/08/30 10:06:33;;;;;;;6.47;2.97;;;21.30;81.30;;;;;;5066094;28;20546;-31
2023/08/30 10:09:00;;;;;;;4.85;3.15;;;;;;;;;;5059059;28;20136;-32
2023/08/30 10:11:26;;;;;;;5.57;3.33;;;22.70;82.50;;;;;;5062127;28;20123;-31
2023/08/30 10:13:53;;;;;;;5.93;3.20;;;21.30;81.60;;;;;;5055959;28;20128;-32
2023/08/30 10:16:20;;;;;;;5.65;3.22;;;21.30;65.90;;;;;;5054356;28;20076;-34
2023/08/30 10:18:48;;;;;;;4.45;3.17;;;20.90;82.20;;;;;;5053767;28;20132;-30
2023/08/30 10:21:16;;;;;;;6.22;3.13;;;21.50;82.20;;;;;;5059380;28;20127;-31
2023/08/30 10:23:43;;;;;;;4.82;3.00;;;21.60;81.70;;;;;;5053524;28;20473;-32
2023/08/30 10:26:09;;;;;;;4.60;3.20;;;22.10;82.50;;;;;;5053424;28;20136;-31
2023/08/30 10:28:36;;;;;;;5.95;3.05;;;;;;;;;;5053612;28;20073;-35
2023/08/30 10:31:03;;;;;;;6.53;3.40;;;20.90;82.60;;;;;;5053466;28;20132;-30
2023/08/30 10:33:30;;;;;;;5.00;2.90;;;21.50;82.40;;;;;;5067743;28;20128;-30
2023/08/30 10:36:05;;;;;;;6.90;3.83;;;21.40;77.90;;;;;;5068835;28;20416;-32
2023/08/30 10:38:38;;;;;;;6.05;3.33;;;20.90;80.10;;;;;;5073568;28;20072;-30
2023/08/30 10:41:08;;;;;;;6.35;3.03;;;21.30;65.20;;;;;;5072903;28;20053;-30
2023/08/30 10:43:35;;;;;;;5.38;3.38;;;21.40;70.90;;;;;;5073196;28;20123;-31
2023/08/30 10:46:02;;;;;;;7.45;4.07;;;21.20;81.60;;;;;;5067206;28;20553;-31
2023/08/30 10:48:36;;;;;;;5.35;3.33;;;21.50;68.20;;;;;;5058352;28;20131;-33
2023/08/30 10:51:04;;;;;;;4.90;3.50;;;;;;;;;;5053574;28;20048;-31
2023/08/30 10:53:32;;;;;;;5.28;3.70;;;20.60;81.40;;;;;;5052661;28;20507;-29
2023/08/30 10:56:10;;;;;;;4.72;3.38;;;21.30;65.30;;;;;;5052921;28;20148;-32
2023/08/30 10:58:41;;;;;;;4.93;3.25;;;21.10;67.00;;;;;;5054633;28;20056;-33
2023/08/30 11:01:10;;;;;;;4.30;3.08;;;21.00;81.70;;;;;;5058735;28;20142;-31
2023/08/30 11:03:36;;;;;;;5.05;3.20;;;20.90;81.60;;;;;;5061743;28;20492;-30
2023/08/30 11:06:03;;;;;;;4.32;3.00;;;21.10;81.70;;;;;;5054550;28;20049;-31
2023/08/30 11:08:30;;;;;;;4.82;2.90;;;;;;;;;;5055470;28;20052;-34
2023/08/30 11:11:06;;;;;;;6.90;3.00;;;20.90;81.60;;;;;;5057918;28;20051;-31
2023/08/30 11:13:32;;;;;;;6.90;3.13;;;21.40;82.30;;;;;;5072314;28;20044;-31
2023/08/30 11:16:03;;;;;;;4.50;3.33;;;21.10;65.30;;;;;;5071887;28;20557;-30
2023/08/30 11:18:30;;;;;;;4.75;3.40;;;;;;;;;;5061060;28;20167;-34
2023/08/30 11:21:01;;;;;;;5.70;3.58;;;21.10;82.60;;;;;;5052301;28;20128;-31
2023/08/30 11:23:27;;;;;;;6.68;3.17;;;21.30;83.00;;;;;;5052525;28;20124;-36
2023/08/30 11:25:54;;;;;;;7.50;3.40;;;;;;;;;;5052108;28;20084;-36
2023/08/30 11:28:25;;;;;;;5.43;3.10;;;21.00;82.00;;;;;;5052488;28;20132;-36
2023/08/30 11:30:54;;;;;;;7.03;2.90;;;21.20;65.40;;;;;;5052159;28;20215;-35
2023/08/30 11:33:21;;;;;;;4.78;3.00;;;21.20;79.00;;;;;;5061645;28;20072;-38
2023/08/30 11:35:49;;;;;;;4.88;2.85;;;21.50;67.00;;;;;;5052290;28;20557;-39
2023/08/30 11:38:16;;;;;;;6.75;3.08;;;;;;;;;;5052271;28;20132;-35
2023/08/30 11:40:43;;;;;;;6.63;3.10;;;21.50;71.50;;;;;;5052053;28;20076;-37
2023/08/30 11:43:09;;;;;;;5.90;2.80;;;21.20;82.20;;;;;;5052014;28;20127;-38
2023/08/30 11:45:37;;;;;;;7.28;3.17;;;20.40;81.40;;;;;;5052595;28;20136;-40
2023/08/30 11:48:05;;;;;;;8.10;2.92;;;20.80;81.60;;;;;;5068243;28;20135;-38
2023/08/30 11:50:32;;;;;;;6.30;2.90;;;;;;;;;;5060314;28;20059;-36
2023/08/30 11:52:59;;;;;;;6.20;3.10;;;;;;;;;;5061923;28;20569;-33
2023/08/30 11:55:26;;;;;;;12.43;3.10;;;21.40;82.40;;;;;;5061418;28;20485;-38
2023/08/30 11:57:53;;;;;;;7.68;2.95;;;21.60;83.00;;;;;;5060432;28;20128;-39
2023/08/30 12:00:20;;;;;;;4.07;2.67;;;21.10;72.60;;;;;;5060596;28;20143;-36
2023/08/30 12:02:48;;;;;;;4.63;3.03;;;21.20;82.90;;;;;;5061141;28;20123;-38
2023/08/30 12:05:15;;;;;;;3.42;2.92;;;20.30;70.80;;;;;;5059540;28;20072;-31
2023/08/30 12:07:42;;;;;;;3.45;2.58;;;21.40;77.70;;;;;;5051870;28;20091;-32
2023/08/30 12:10:10;;;;;;;5.53;2.70;;;21.20;65.70;;;;;;5051767;28;20135;-35
2023/08/30 12:12:37;;;;;;;6.38;2.90;;;20.80;82.10;;;;;;5055765;28;20129;-31
2023/08/30 12:15:08;;;;;;;4.82;2.80;;;20.80;65.50;;;;;;5061660;28;20398;-31
2023/08/30 12:17:36;;;;;;;5.35;3.00;;;21.20;65.80;;;;;;5060045;28;20144;-30
2023/08/30 12:20:04;;;;;;;4.43;2.78;;;21.30;82.20;;;;;;5062197;28;20044;-30
2023/08/30 12:22:40;;;;;;;5.80;2.70;;;21.30;83.20;;;;;;5061514;28;20129;-30
2023/08/30 12:25:17;;;;;;;3.95;3.20;;;21.10;65.70;;;;;;5061445;28;20131;-30
2023/08/30 12:27:44;;;;;;;4.40;2.78;;;;;;;;;;5051118;28;20055;-35
2023/08/30 12:30:11;;;;;;;3.45;2.38;;;20.80;83.10;;;;;;5051364;28;20120;-30
2023/08/30 12:32:38;;;;;;;5.07;2.67;;;;;;;;;;5050578;28;20147;-35
2023/08/30 12:35:07;;;;;;;4.05;2.70;;;20.70;82.30;;;;;;5051600;28;20128;-30
2023/08/30 12:37:34;;;;;;;4.22;2.60;;;21.30;82.90;;;;;;5065595;28;20128;-30
2023/08/30 12:40:01;;;;;;;4.30;2.80;;;;;;;;;;5071622;28;20051;-33
2023/08/30 12:42:28;;;;;;;3.78;2.53;;;21.00;82.90;;;;;;5071298;28;20076;-30
2023/08/30 12:44:55;;;;;;;4.68;2.53;;;20.90;74.70;;;;;;5071791;28;20124;-31
2023/08/30 12:47:21;;;;;;;3.97;2.42;;;21.40;82.80;;;;;;5071695;28;20128;-29
2023/08/30 12:49:48;;;;;;;5.15;2.70;;;21.40;83.20;;;;;;5068572;28;20127;-31
2023/08/30 12:52:17;;;;;;;2.75;2.35;;;21.30;75.30;;;;;;5050963;28;20084;-30
2023/08/30 12:54:44;;;;;;;3.30;2.63;;;21.10;82.60;;;;;;5051468;28;20045;-30
2023/08/30 12:57:11;;;;;;;3.28;2.40;;;20.80;82.40;;;;;;5051599;28;20083;-31
2023/08/30 12:59:37;;;;;;;4.20;2.50;;;22.20;79.50;;;;;;5051581;28;20483;-30
2023/08/30 13:02:04;;;;;;;4.20;2.70;;;21.20;83.00;;;;;;5051298;28;20517;-30
2023/08/30 13:04:31;;;;;;;3.25;2.42;;;19.80;68.10;;;;;;5051143;28;20123;-33
2023/08/30 13:06:58;;;;;;;3.08;2.28;;;21.00;83.10;;;;;;5070298;28;20136;-40
2023/08/30 13:09:26;;;;;;;4.30;2.50;;;20.60;75.50;;;;;;5071181;28;20080;-35
2023/08/30 13:11:53;;;;;;;3.78;2.60;;;;;;;;;;5071373;28;20148;-36